createdAt,value
2022-09-03T00:02:13.354Z,0.90
2022-09-03T00:05:23.504Z,1.10
2022-09-03T00:08:28.345Z,1.03
2022-09-03T00:11:19.418Z,1.30
2022-09-03T00:14:12.934Z,1.10
2022-09-03T00:17:07.645Z,1.10
2022-09-03T00:20:20.358Z,1.20
2022-09-03T00:23:12.242Z,1.10
2022-09-03T00:26:17.715Z,0.93
2022-09-03T00:29:16.266Z,1.90
2022-09-03T00:32:11.107Z,1.27
2022-09-03T00:35:03.406Z,1.13
2022-09-03T00:37:52.984Z,1.30
2022-09-03T00:41:08.783Z,1.10
2022-09-03T00:44:36.151Z,1.30
2022-09-03T00:47:24.901Z,1.30
2022-09-03T00:50:40.191Z,1.17
2022-09-03T00:53:39.219Z,1.20
2022-09-03T00:56:41.404Z,1.03
2022-09-03T01:00:03.779Z,1.17
2022-09-03T01:03:23.106Z,1.20
2022-09-03T01:06:28.066Z,1.20
2022-09-03T01:10:01.306Z,1.37
2022-09-03T01:13:13.440Z,1.20
2022-09-03T01:16:16.150Z,1.30
2022-09-03T01:19:28.958Z,1.23
2022-09-03T01:22:44.205Z,1.30
2022-09-03T01:25:51.676Z,1.13
2022-09-03T01:29:00.928Z,1.50
2022-09-03T01:31:47.869Z,1.17
2022-09-03T01:34:48.409Z,1.10
2022-09-03T01:37:38.327Z,1.10
2022-09-03T01:40:51.723Z,1.30
2022-09-03T01:43:51.856Z,1.20
2022-09-03T01:46:46.000Z,1.30
2022-09-03T01:49:45.407Z,1.20
2022-09-03T01:53:06.321Z,1.30
2022-09-03T01:56:43.020Z,1.30
2022-09-03T01:59:59.866Z,1.40
2022-09-03T02:02:51.209Z,1.50
2022-09-03T02:05:39.263Z,1.23
2022-09-03T02:08:26.246Z,1.30
2022-09-03T02:11:13.455Z,1.30
2022-09-03T02:14:00.940Z,1.30
2022-09-03T02:16:47.907Z,1.40
2022-09-03T02:19:37.730Z,1.43
2022-09-03T02:22:24.948Z,1.30
2022-09-03T02:25:12.134Z,1.43
2022-09-03T02:28:00.381Z,1.60
2022-09-03T02:30:48.414Z,1.50
2022-09-03T02:33:39.237Z,1.60
2022-09-03T02:36:31.884Z,1.50
2022-09-03T02:39:18.908Z,2.03
2022-09-03T02:42:06.413Z,1.50
2022-09-03T02:45:08.297Z,1.70
2022-09-03T02:47:58.957Z,1.67
2022-09-03T02:50:45.952Z,1.70
2022-09-03T02:53:32.932Z,1.90
2022-09-03T02:56:19.986Z,1.57
2022-09-03T02:59:09.261Z,1.80
2022-09-03T03:01:56.250Z,1.67
2022-09-03T03:04:48.073Z,1.60
2022-09-03T03:07:39.297Z,1.70
2022-09-03T03:10:26.269Z,1.70
2022-09-03T03:13:14.320Z,1.80
2022-09-03T03:16:04.172Z,1.60
2022-09-03T03:18:52.839Z,1.50
2022-09-03T03:21:40.341Z,1.67
2022-09-03T03:24:27.357Z,2.00
2022-09-03T03:27:15.012Z,1.67
2022-09-03T03:30:02.006Z,1.67
2022-09-03T03:32:49.057Z,1.60
2022-09-03T03:35:36.764Z,1.43
2022-09-03T03:38:23.831Z,1.70
2022-09-03T03:41:13.375Z,1.83
2022-09-03T03:44:05.461Z,1.57
2022-09-03T03:46:52.452Z,1.70
2022-09-03T03:49:39.435Z,1.63
2022-09-03T03:52:28.259Z,1.60
2022-09-03T03:55:15.928Z,1.50
2022-09-03T03:58:03.129Z,1.80
2022-09-03T04:00:53.274Z,1.63
2022-09-03T04:03:40.957Z,1.77
2022-09-03T04:06:28.801Z,1.70
2022-09-03T04:09:15.837Z,1.60
2022-09-03T04:12:03.919Z,1.93
2022-09-03T04:14:50.870Z,1.60
2022-09-03T04:17:37.853Z,1.50
2022-09-03T04:20:24.898Z,1.60
2022-09-03T04:23:12.786Z,1.70
2022-09-03T04:25:59.967Z,1.67
2022-09-03T04:28:47.030Z,1.63
2022-09-03T04:31:36.438Z,1.40
2022-09-03T04:34:24.394Z,1.60
2022-09-03T04:37:12.104Z,1.90
2022-09-03T04:39:59.270Z,1.70
2022-09-03T04:42:46.344Z,1.67
2022-09-03T04:45:33.406Z,1.77
2022-09-03T04:48:20.350Z,1.63
2022-09-03T04:51:16.106Z,1.33
2022-09-03T04:54:03.165Z,1.60
2022-09-03T04:56:50.109Z,1.70
2022-09-03T04:59:37.222Z,1.73
2022-09-03T05:02:24.295Z,1.70
2022-09-03T05:05:11.269Z,1.63
2022-09-03T05:07:59.101Z,1.50
2022-09-03T05:10:46.049Z,1.50
2022-09-03T05:13:34.710Z,1.40
2022-09-03T05:16:23.787Z,1.60
2022-09-03T05:19:10.950Z,1.83
2022-09-03T05:21:57.958Z,1.50
2022-09-03T05:24:44.930Z,1.70
2022-09-03T05:27:32.323Z,1.53
2022-09-03T05:30:19.350Z,1.83
2022-09-03T05:33:06.299Z,1.63
2022-09-03T05:36:01.789Z,1.60
2022-09-03T05:38:49.209Z,1.70
2022-09-03T05:41:36.266Z,1.50
2022-09-03T05:44:24.043Z,1.70
2022-09-03T05:47:11.574Z,1.60
2022-09-03T05:49:58.827Z,1.70
2022-09-03T05:52:45.805Z,1.60
2022-09-03T05:55:33.255Z,1.50
2022-09-03T05:58:20.266Z,1.60
2022-09-03T06:01:17.917Z,1.60
2022-09-03T06:04:13.053Z,1.67
2022-09-03T06:07:00.021Z,1.50
2022-09-03T06:09:47.015Z,1.60
2022-09-03T06:12:33.985Z,1.67
2022-09-03T06:15:20.965Z,1.63
2022-09-03T06:18:07.961Z,1.80
2022-09-03T06:20:59.494Z,1.80
2022-09-03T06:23:56.665Z,1.77
2022-09-03T06:26:47.002Z,1.43
2022-09-03T06:29:35.640Z,1.73
2022-09-03T06:32:22.746Z,1.60
2022-09-03T06:35:10.037Z,1.53
2022-09-03T06:37:56.970Z,1.77
2022-09-03T06:40:47.406Z,1.70
2022-09-03T06:43:36.429Z,1.60
2022-09-03T06:46:24.118Z,1.50
2022-09-03T06:49:12.046Z,1.70
2022-09-03T06:51:59.036Z,1.67
2022-09-03T06:54:46.022Z,1.70
2022-09-03T06:57:33.089Z,1.77
2022-09-03T07:00:21.356Z,1.63
2022-09-03T07:03:08.273Z,1.37
2022-09-03T07:06:00.835Z,1.50
2022-09-03T07:08:47.802Z,1.53
2022-09-03T07:11:36.108Z,1.40
2022-09-03T07:14:23.393Z,1.40
2022-09-03T07:17:10.734Z,1.53
2022-09-03T07:19:58.332Z,1.70
2022-09-03T07:22:45.608Z,1.50
2022-09-03T07:25:33.001Z,1.63
2022-09-03T07:28:20.125Z,1.60
2022-09-03T07:31:08.763Z,1.60
2022-09-03T07:34:00.881Z,1.40
2022-09-03T07:36:51.150Z,1.73
2022-09-03T07:39:38.567Z,1.47
2022-09-03T07:42:27.927Z,1.70
2022-09-03T07:45:15.138Z,1.53
2022-09-03T07:48:02.339Z,1.53
2022-09-03T07:50:49.386Z,1.43
2022-09-03T07:53:36.841Z,1.40
2022-09-03T07:56:24.815Z,1.67
2022-09-03T07:59:12.168Z,1.40
2022-09-03T08:01:59.210Z,1.60
2022-09-03T08:04:46.301Z,1.50
2022-09-03T08:07:33.252Z,1.17
2022-09-03T08:10:21.594Z,1.40
2022-09-03T08:13:08.635Z,1.10
2022-09-03T08:15:57.202Z,1.50
2022-09-03T08:18:44.448Z,1.30
2022-09-03T08:21:32.078Z,1.47
2022-09-03T08:24:21.955Z,1.30
2022-09-03T08:27:09.418Z,1.40
2022-09-03T08:29:56.540Z,1.70
2022-09-03T08:32:43.962Z,1.40
2022-09-03T08:35:34.434Z,1.40
2022-09-03T08:38:21.626Z,1.20
2022-09-03T08:41:16.949Z,1.33
2022-09-03T08:44:17.620Z,1.53
2022-09-03T08:47:13.892Z,1.10
2022-09-03T08:50:12.751Z,1.40
2022-09-03T08:53:21.329Z,1.27
2022-09-03T08:56:13.385Z,1.30
2022-09-03T08:59:01.929Z,1.30
2022-09-03T09:01:59.380Z,1.30
2022-09-03T09:04:49.230Z,1.33
2022-09-03T09:07:45.051Z,1.47
2022-09-03T09:10:44.500Z,1.40
2022-09-03T09:13:39.030Z,1.57
2022-09-03T09:17:14.172Z,1.47
2022-09-03T09:20:08.201Z,1.20
2022-09-03T09:23:03.754Z,1.67
2022-09-03T09:25:51.628Z,1.50
2022-09-03T09:28:39.753Z,1.40
2022-09-03T09:31:28.583Z,1.40
2022-09-03T09:34:15.595Z,1.60
2022-09-03T09:37:06.207Z,1.43
2022-09-03T09:40:00.997Z,1.53
2022-09-03T09:42:48.074Z,1.77
2022-09-03T09:45:35.350Z,1.70
2022-09-03T09:48:26.510Z,1.30
2022-09-03T09:51:19.594Z,1.57
2022-09-03T09:54:27.978Z,1.60
2022-09-03T09:57:20.253Z,1.40
2022-09-03T10:00:13.486Z,1.17
2022-09-03T10:03:02.143Z,1.60
2022-09-03T10:06:28.058Z,1.60
2022-09-03T10:09:20.513Z,1.80
2022-09-03T10:12:26.448Z,1.67
2022-09-03T10:15:51.722Z,1.53
2022-09-03T10:19:09.639Z,1.60
2022-09-03T10:22:26.414Z,1.37
2022-09-03T10:25:26.511Z,1.53
2022-09-03T10:28:17.059Z,1.33
2022-09-03T10:31:33.637Z,1.37
2022-09-03T10:34:53.345Z,1.50
2022-09-03T10:37:53.473Z,1.70
2022-09-03T10:40:57.977Z,1.70
2022-09-03T10:44:41.095Z,1.37
2022-09-03T10:48:14.781Z,1.50
2022-09-03T10:51:22.955Z,1.27
2022-09-03T10:54:38.671Z,1.25
2022-09-03T10:57:51.899Z,1.57
2022-09-03T11:00:54.385Z,1.40
2022-09-03T11:04:04.770Z,1.30
2022-09-03T11:06:53.550Z,1.40
2022-09-03T11:10:11.459Z,1.30
2022-09-03T11:13:24.000Z,1.23
2022-09-03T11:16:26.094Z,1.30
2022-09-03T11:19:20.676Z,1.30
2022-09-03T11:22:11.096Z,1.48
2022-09-03T11:25:02.923Z,1.42
2022-09-03T11:28:08.291Z,1.48
2022-09-03T11:31:36.823Z,1.40
2022-09-03T11:34:31.878Z,1.30
2022-09-03T11:37:30.663Z,1.38
2022-09-03T11:40:19.546Z,1.42
2022-09-03T11:43:29.732Z,1.23
2022-09-03T11:46:23.535Z,1.10
2022-09-03T11:49:15.369Z,1.30
2022-09-03T11:52:11.105Z,1.20
2022-09-03T11:54:58.916Z,1.20
2022-09-03T11:57:46.687Z,1.20
2022-09-03T12:00:38.680Z,1.23
2022-09-03T12:03:30.909Z,1.70
2022-09-03T12:06:52.364Z,1.33
2022-09-03T12:09:48.112Z,1.27
2022-09-03T12:12:59.916Z,1.40
2022-09-03T12:15:47.302Z,1.20
2022-09-03T12:18:37.023Z,1.40
2022-09-03T12:21:25.953Z,1.10
2022-09-03T12:24:19.538Z,1.50
2022-09-03T12:27:10.749Z,1.17
2022-09-03T12:30:00.438Z,1.40
2022-09-03T12:32:48.503Z,1.20
2022-09-03T12:39:10.006Z,1.35
2022-09-03T12:41:57.344Z,1.48
2022-09-03T12:44:45.414Z,1.33
2022-09-03T12:47:42.972Z,1.33
2022-09-03T12:50:30.855Z,1.10
2022-09-03T12:53:25.116Z,1.13
2022-09-03T12:56:16.768Z,1.42
2022-09-03T12:59:12.129Z,1.40
2022-09-03T13:02:12.806Z,1.20
2022-09-03T13:05:01.478Z,1.50
2022-09-03T13:07:55.626Z,1.40
2022-09-03T13:10:44.168Z,1.45
2022-09-03T13:13:34.125Z,1.23
2022-09-03T13:16:50.345Z,1.67
2022-09-03T13:20:03.233Z,1.30
2022-09-03T13:23:18.749Z,1.20
2022-09-03T13:26:12.998Z,1.00
2022-09-03T13:29:24.778Z,1.17
2022-09-03T13:32:19.697Z,1.45
2022-09-03T13:35:47.293Z,1.52
2022-09-03T13:38:51.733Z,1.30
2022-09-03T13:41:49.563Z,1.50
2022-09-03T13:44:59.175Z,1.30
2022-09-03T13:48:29.913Z,1.13
2022-09-03T13:51:20.780Z,1.08
2022-09-03T13:54:47.796Z,1.13
2022-09-03T13:57:39.921Z,1.25
2022-09-03T14:00:38.622Z,1.20
2022-09-03T14:03:49.023Z,1.10
2022-09-03T14:06:45.224Z,1.20
2022-09-03T14:09:50.816Z,1.30
2022-09-03T14:13:06.523Z,1.20
2022-09-03T14:16:40.675Z,1.27
2022-09-03T14:19:53.987Z,1.10
2022-09-03T14:22:52.106Z,1.25
2022-09-03T14:25:42.785Z,1.35
2022-09-03T14:28:49.867Z,1.40
2022-09-03T14:31:59.487Z,1.17
2022-09-03T14:35:00.463Z,1.60
2022-09-03T14:38:06.130Z,1.17
2022-09-03T14:41:14.417Z,1.23
2022-09-03T14:44:38.951Z,1.33
2022-09-03T14:47:44.878Z,1.27
2022-09-03T14:50:55.286Z,1.65
2022-09-03T14:53:55.763Z,1.40
2022-09-03T14:57:13.279Z,1.52
2022-09-03T15:00:20.118Z,1.15
2022-09-03T15:03:22.595Z,1.30
2022-09-03T15:06:28.131Z,1.40
2022-09-03T15:09:50.742Z,1.20
2022-09-03T15:12:42.690Z,1.35
2022-09-03T15:15:48.553Z,1.40
2022-09-03T15:18:53.824Z,1.40
2022-09-03T15:21:52.828Z,1.27
2022-09-03T15:24:42.908Z,1.20
2022-09-03T15:27:42.062Z,1.35
2022-09-03T15:30:50.554Z,1.15
2022-09-03T15:33:45.357Z,1.33
2022-09-03T15:36:40.414Z,1.63
2022-09-03T15:39:39.230Z,1.45
2022-09-03T15:42:28.691Z,1.10
2022-09-03T15:45:31.544Z,1.17
2022-09-03T15:48:27.958Z,1.50
2022-09-03T15:51:25.520Z,1.70
2022-09-03T15:57:10.111Z,1.40
2022-09-03T16:00:07.689Z,1.40
2022-09-03T16:03:23.893Z,1.40
2022-09-03T16:06:39.904Z,1.20
2022-09-03T16:10:07.675Z,1.10
2022-09-03T16:13:06.648Z,1.30
2022-09-03T16:16:11.312Z,1.53
2022-09-03T16:19:05.590Z,1.60
2022-09-03T16:22:02.318Z,1.30
2022-09-03T16:24:59.135Z,1.17
2022-09-03T16:28:10.252Z,1.33
2022-09-03T16:31:00.310Z,1.23
2022-09-03T16:34:18.676Z,1.10
2022-09-03T16:37:29.221Z,1.20
2022-09-03T16:40:52.048Z,1.30
2022-09-03T16:43:59.846Z,1.33
2022-09-03T16:47:07.622Z,1.30
2022-09-03T16:50:29.546Z,1.23
2022-09-03T16:53:34.127Z,1.50
2022-09-03T16:56:55.117Z,1.23
2022-09-03T17:00:29.666Z,1.23
2022-09-03T17:04:00.518Z,1.33
2022-09-03T17:07:12.722Z,1.53
2022-09-03T17:14:09.105Z,1.20
2022-09-03T17:17:05.934Z,1.60
2022-09-03T17:20:20.961Z,1.40
2022-09-03T17:23:09.842Z,1.40
2022-09-03T17:26:15.483Z,1.33
2022-09-03T17:29:08.849Z,1.43
2022-09-03T17:32:33.112Z,1.20
2022-09-03T17:35:38.839Z,1.50
2022-09-03T17:39:05.586Z,1.40
2022-09-03T17:41:59.908Z,1.40
2022-09-03T17:45:08.945Z,1.30
2022-09-03T17:48:05.617Z,1.40
2022-09-03T17:51:04.942Z,1.57
2022-09-03T17:54:06.368Z,1.60
2022-09-03T17:57:10.765Z,1.50
2022-09-03T18:00:46.555Z,1.43
2022-09-03T18:03:56.331Z,1.40
2022-09-03T18:06:59.278Z,1.53
2022-09-03T18:10:02.538Z,1.53
2022-09-03T18:13:13.658Z,1.60
2022-09-03T18:16:13.686Z,1.50
2022-09-03T18:19:07.019Z,1.57
2022-09-03T18:22:13.628Z,1.80
2022-09-03T18:29:19.053Z,1.53
2022-09-03T18:32:30.362Z,1.60
2022-09-03T18:39:09.294Z,1.73
2022-09-03T18:42:23.845Z,1.70
2022-09-03T18:46:34.199Z,2.00
2022-09-03T18:49:44.608Z,1.50
2022-09-03T18:53:15.757Z,1.90
2022-09-03T18:57:00.109Z,1.70
2022-09-03T19:00:28.780Z,2.00
2022-09-03T19:07:48.757Z,1.90
2022-09-03T19:11:05.374Z,1.80
2022-09-03T19:14:11.487Z,1.73
2022-09-03T19:17:52.130Z,1.60
2022-09-03T19:21:21.514Z,1.57
2022-09-03T19:24:27.233Z,1.40
2022-09-03T19:28:21.825Z,1.70
2022-09-03T19:31:46.027Z,1.50
2022-09-03T19:35:08.943Z,1.70
2022-09-03T19:38:38.651Z,2.03
2022-09-03T19:46:00.707Z,1.93
2022-09-03T19:49:25.476Z,1.70
2022-09-03T19:52:53.472Z,1.77
2022-09-03T19:56:09.087Z,1.73
2022-09-03T19:59:19.345Z,1.87
2022-09-03T20:02:25.211Z,1.70
2022-09-03T20:05:38.328Z,1.93
2022-09-03T20:08:44.499Z,1.60
2022-09-03T20:11:31.777Z,1.70
2022-09-03T20:14:19.859Z,1.87
2022-09-03T20:17:41.901Z,1.70
2022-09-03T20:20:42.021Z,1.73
2022-09-03T20:23:48.273Z,1.97
2022-09-03T20:27:05.391Z,1.90
2022-09-03T20:30:13.428Z,1.90
2022-09-03T20:33:12.829Z,1.70
2022-09-03T20:36:24.399Z,1.90
2022-09-03T20:39:27.744Z,1.90
2022-09-03T20:42:26.469Z,2.43
2022-09-03T20:45:18.459Z,1.83
2022-09-03T20:48:22.185Z,2.00
2022-09-03T20:51:22.347Z,2.10
2022-09-03T20:54:21.369Z,1.70
2022-09-03T20:57:14.692Z,1.83
2022-09-03T21:00:24.205Z,1.97
2022-09-03T21:03:18.383Z,1.90
2022-09-03T21:06:42.141Z,1.60
2022-09-03T21:09:38.370Z,2.20
2022-09-03T21:12:36.267Z,2.37
2022-09-03T21:15:51.176Z,1.90
2022-09-03T21:19:11.707Z,1.80
2022-09-03T21:22:47.393Z,2.00
2022-09-03T21:25:41.436Z,2.60
2022-09-03T21:29:00.493Z,2.40
2022-09-03T21:32:17.370Z,2.60
2022-09-03T21:39:12.156Z,2.37
2022-09-03T21:42:37.902Z,2.50
2022-09-03T21:45:53.968Z,2.37
2022-09-03T21:48:47.393Z,2.43
2022-09-03T21:51:53.325Z,2.40
2022-09-03T21:54:40.664Z,2.50
2022-09-03T21:58:04.605Z,2.80
2022-09-03T22:00:57.791Z,2.57
2022-09-03T22:03:44.828Z,2.80
2022-09-03T22:06:46.005Z,2.73
2022-09-03T22:09:41.985Z,3.00
2022-09-03T22:12:37.481Z,2.67
2022-09-03T22:15:24.929Z,2.73
2022-09-03T22:18:23.863Z,2.80
2022-09-03T22:21:19.798Z,2.60
2022-09-03T22:24:23.191Z,2.57
2022-09-03T22:27:44.958Z,2.80
2022-09-03T22:31:04.915Z,2.90
2022-09-03T22:34:03.723Z,2.63
2022-09-03T22:36:58.835Z,3.17
2022-09-03T22:39:47.255Z,2.83
2022-09-03T22:43:04.885Z,3.03
2022-09-03T22:46:04.088Z,2.87
2022-09-03T22:49:01.701Z,3.07
2022-09-03T22:52:06.374Z,3.13
2022-09-03T22:55:05.634Z,3.20
2022-09-03T22:57:56.293Z,2.90
2022-09-03T23:00:53.495Z,2.53
2022-09-03T23:03:48.420Z,2.63
2022-09-03T23:06:41.843Z,2.40
2022-09-03T23:09:33.741Z,2.77
2022-09-03T23:12:33.725Z,2.63
2022-09-03T23:15:29.605Z,2.97
2022-09-03T23:18:27.108Z,3.10
2022-09-03T23:21:25.279Z,2.63
2022-09-03T23:24:20.740Z,3.03
2022-09-03T23:27:15.037Z,3.23
2022-09-03T23:30:02.784Z,3.27
2022-09-03T23:32:55.246Z,3.40
2022-09-03T23:36:05.066Z,3.13
2022-09-03T23:39:15.000Z,3.57
2022-09-03T23:42:17.281Z,3.50
2022-09-03T23:45:23.718Z,3.70
2022-09-03T23:48:34.050Z,3.60
2022-09-03T23:51:33.590Z,3.40
2022-09-03T23:54:46.691Z,3.47
2022-09-03T23:57:36.649Z,3.20
